Terminal Aerodrome Forecast
Issued by NWS Sterling, VA

Current Version | Previous Version | Graphics & Text | Print | Product List | Glossary On
Versions: 1 2 3 4 5 6 7 8 9 10 11 12 13 14 15 16 17 18 19 20 21 22 23 24 25
000
FTUS41 KLWX 280428 AAA
TAFIAD
TAF AMD
KIAD 280428Z 2804/2906 00000KT 5SM BR BKN008
     FM281500 08005KT P6SM BKN040
     FM281800 11007KT P6SM SHRA BKN030
     FM282100 11007KT 4SM SHRA BR OVC015
     FM290000 11006KT 3SM SHRA BR OVC050=

USA.gov is the U.S. government's official web portal to all federal, state and local government web resources and services.